createdAt,value
2023-04-03T00:02:15.875Z,99.90
2023-04-03T00:04:42.742Z,99.90
2023-04-03T00:07:09.606Z,99.90
2023-04-03T00:09:36.202Z,99.90
2023-04-03T00:12:02.784Z,99.90
2023-04-03T00:14:29.388Z,99.90
2023-04-03T00:16:56.024Z,99.90
2023-04-03T00:19:22.848Z,99.90
2023-04-03T00:21:49.455Z,99.90
2023-04-03T00:24:16.102Z,99.90
2023-04-03T00:26:42.730Z,99.90
2023-04-03T00:29:09.262Z,99.90
2023-04-03T00:31:36.084Z,99.90
2023-04-03T00:34:02.795Z,99.90
2023-04-03T00:36:29.562Z,99.90
2023-04-03T00:38:56.250Z,99.90
2023-04-03T00:41:23.056Z,99.90
2023-04-03T00:43:49.717Z,99.90
2023-04-03T00:46:16.534Z,99.90
2023-04-03T00:48:45.878Z,99.90
2023-04-03T00:51:17.412Z,99.90
2023-04-03T00:53:52.822Z,99.90
2023-04-03T00:56:23.342Z,99.90
2023-04-03T00:58:55.468Z,99.90
2023-04-03T01:01:25.961Z,99.90
2023-04-03T01:03:52.911Z,99.90
2023-04-03T01:06:26.042Z,99.90
2023-04-03T01:08:53.882Z,99.90
2023-04-03T01:11:21.559Z,99.90
2023-04-03T01:13:48.832Z,99.90
2023-04-03T01:16:15.551Z,99.90
2023-04-03T01:18:43.475Z,99.90
2023-04-03T01:21:28.418Z,99.90
2023-04-03T01:24:08.542Z,99.90
2023-04-03T01:26:36.566Z,99.90
2023-04-03T01:29:04.322Z,99.90
2023-04-03T01:31:48.828Z,99.90
2023-04-03T01:34:15.919Z,99.90
2023-04-03T01:36:42.510Z,99.90
2023-04-03T01:39:09.087Z,99.90
2023-04-03T01:41:35.920Z,99.90
2023-04-03T01:44:03.004Z,99.90
2023-04-03T01:46:29.571Z,99.90
2023-04-03T01:48:56.451Z,99.90
2023-04-03T01:51:23.041Z,99.90
2023-04-03T01:53:49.623Z,99.90
2023-04-03T01:56:16.613Z,99.90
2023-04-03T01:58:43.161Z,99.90
2023-04-03T02:01:09.829Z,99.90
2023-04-03T02:03:36.551Z,99.90
2023-04-03T02:06:03.419Z,99.90
2023-04-03T02:08:30.218Z,99.90
2023-04-03T02:10:56.855Z,99.90
2023-04-03T02:13:23.532Z,99.90
2023-04-03T02:15:50.302Z,99.90
2023-04-03T02:18:17.038Z,99.90
2023-04-03T02:20:43.640Z,99.90
2023-04-03T02:23:10.692Z,99.90
2023-04-03T02:25:38.907Z,99.90
2023-04-03T02:28:06.077Z,99.90
2023-04-03T02:30:32.628Z,99.90
2023-04-03T02:32:59.301Z,99.90
2023-04-03T02:35:25.930Z,99.90
2023-04-03T02:37:52.550Z,99.90
2023-04-03T02:40:19.442Z,99.90
2023-04-03T02:42:46.160Z,99.90
2023-04-03T02:45:12.823Z,99.90
2023-04-03T02:47:39.486Z,99.90
2023-04-03T02:50:06.403Z,99.90
2023-04-03T02:52:33.067Z,99.90
2023-04-03T02:54:59.670Z,99.90
2023-04-03T02:57:26.298Z,99.90
2023-04-03T02:59:52.871Z,99.90
2023-04-03T03:02:19.683Z,99.90
2023-04-03T03:04:46.244Z,99.90
2023-04-03T03:07:12.919Z,99.90
2023-04-03T03:09:39.520Z,99.90
2023-04-03T03:12:06.205Z,99.90
2023-04-03T03:14:32.757Z,99.90
2023-04-03T03:16:59.367Z,99.90
2023-04-03T03:19:26.027Z,99.90
2023-04-03T03:21:52.953Z,99.90
2023-04-03T03:24:19.513Z,99.90
2023-04-03T03:26:46.076Z,99.90
2023-04-03T03:29:12.642Z,99.90
2023-04-03T03:31:39.255Z,99.90
2023-04-03T03:34:05.862Z,99.90
2023-04-03T03:36:32.656Z,99.90
2023-04-03T03:38:59.244Z,99.90
2023-04-03T03:41:26.189Z,99.90
2023-04-03T03:43:53.481Z,99.90
2023-04-03T03:46:20.199Z,99.90
2023-04-03T03:48:46.851Z,99.90
2023-04-03T03:51:13.480Z,99.90
2023-04-03T03:53:40.141Z,99.90
2023-04-03T03:56:07.746Z,99.90
2023-04-03T03:58:34.401Z,99.90
2023-04-03T04:01:06.366Z,99.90
2023-04-03T04:03:33.554Z,99.90
2023-04-03T04:06:00.512Z,99.90
2023-04-03T04:08:27.102Z,99.90
2023-04-03T04:10:54.157Z,99.90
2023-04-03T04:13:21.049Z,99.90
2023-04-03T04:15:47.601Z,99.90
2023-04-03T04:18:14.162Z,99.90
2023-04-03T04:20:40.852Z,99.90
2023-04-03T04:23:07.460Z,99.90
2023-04-03T04:25:34.264Z,99.90
2023-04-03T04:28:01.067Z,99.90
2023-04-03T04:30:28.434Z,99.90
2023-04-03T04:32:55.301Z,99.90
2023-04-03T04:35:21.951Z,99.90
2023-04-03T04:37:48.580Z,99.90
2023-04-03T04:40:15.568Z,99.90
2023-04-03T04:42:42.170Z,99.90
2023-04-03T04:45:09.006Z,99.90
2023-04-03T04:47:35.583Z,99.90
2023-04-03T04:50:02.150Z,99.90
2023-04-03T04:52:28.717Z,99.90
2023-04-03T04:54:55.339Z,99.90
2023-04-03T04:57:22.122Z,99.90
2023-04-03T04:59:48.716Z,99.90
2023-04-03T05:02:15.471Z,99.90
2023-04-03T05:04:42.404Z,99.90
2023-04-03T05:07:08.999Z,99.90
2023-04-03T05:09:35.662Z,99.90
2023-04-03T05:12:03.800Z,99.90
2023-04-03T05:14:30.915Z,99.90
2023-04-03T05:16:58.767Z,99.90
2023-04-03T05:19:25.382Z,99.90
2023-04-03T05:21:52.122Z,99.90
2023-04-03T05:24:18.745Z,99.90
2023-04-03T05:26:45.351Z,99.90
2023-04-03T05:29:12.151Z,99.90
2023-04-03T05:31:38.872Z,99.90
2023-04-03T05:34:05.986Z,99.90
2023-04-03T05:36:32.800Z,99.90
2023-04-03T05:38:59.602Z,99.90
2023-04-03T05:41:26.518Z,99.90
2023-04-03T05:43:53.108Z,99.90
2023-04-03T05:46:21.414Z,99.90
2023-04-03T05:48:48.571Z,99.90
2023-04-03T05:51:18.679Z,99.90
2023-04-03T05:53:47.252Z,99.90
2023-04-03T05:56:14.473Z,99.90
2023-04-03T05:58:41.138Z,99.90
2023-04-03T06:01:07.739Z,99.90
2023-04-03T06:03:34.887Z,99.90
2023-04-03T06:06:05.169Z,99.90
2023-04-03T06:08:31.914Z,99.90
2023-04-03T06:10:58.538Z,99.90
2023-04-03T06:13:25.138Z,99.90
2023-04-03T06:15:51.779Z,99.90
2023-04-03T06:18:18.350Z,99.90
2023-04-03T06:20:45.023Z,99.90
2023-04-03T06:23:11.716Z,99.90
2023-04-03T06:25:38.322Z,99.90
2023-04-03T06:28:04.913Z,99.90
2023-04-03T06:30:31.772Z,99.90
2023-04-03T06:32:58.408Z,99.90
2023-04-03T06:35:25.047Z,98.20
2023-04-03T06:37:51.717Z,95.50
2023-04-03T06:40:22.725Z,93.30
2023-04-03T06:42:49.282Z,91.40
2023-04-03T06:45:16.219Z,90.30
2023-04-03T06:47:42.944Z,87.00
2023-04-03T06:50:12.561Z,85.70
2023-04-03T06:52:40.993Z,83.80
2023-04-03T06:55:09.147Z,82.10
2023-04-03T06:57:36.272Z,81.20
2023-04-03T07:00:05.332Z,79.10
2023-04-03T07:02:32.024Z,79.40
2023-04-03T07:04:58.640Z,77.10
2023-04-03T07:07:25.219Z,76.10
2023-04-03T07:09:52.118Z,74.40
2023-04-03T07:12:18.759Z,74.80
2023-04-03T07:14:45.306Z,74.70
2023-04-03T07:17:11.976Z,73.60
2023-04-03T07:19:38.828Z,72.20
2023-04-03T07:22:05.381Z,71.70
2023-04-03T07:24:32.470Z,69.90
2023-04-03T07:26:59.033Z,69.00
2023-04-03T07:29:25.618Z,67.90
2023-04-03T07:31:52.306Z,66.80
2023-04-03T07:34:19.004Z,65.60
2023-04-03T07:36:45.686Z,66.00
2023-04-03T07:39:12.373Z,66.50
2023-04-03T07:41:39.168Z,63.30
2023-04-03T07:44:06.406Z,63.40
2023-04-03T07:46:33.289Z,64.70
2023-04-03T07:48:59.899Z,63.90
2023-04-03T07:51:27.642Z,62.00
2023-04-03T07:53:54.220Z,62.10
2023-04-03T07:56:21.608Z,62.50
2023-04-03T07:58:48.305Z,61.80
2023-04-03T08:01:14.928Z,61.70
2023-04-03T08:03:41.671Z,59.90
2023-04-03T08:06:15.698Z,59.00
2023-04-03T08:08:42.929Z,58.00
2023-04-03T08:11:11.412Z,58.80
2023-04-03T08:13:38.726Z,59.10
2023-04-03T08:16:16.767Z,56.40
2023-04-03T08:18:43.380Z,56.80
2023-04-03T08:21:11.688Z,56.90
2023-04-03T08:23:39.243Z,56.70
2023-04-03T08:26:14.570Z,57.20
2023-04-03T08:28:41.578Z,56.30
2023-04-03T08:31:12.719Z,56.50
2023-04-03T08:33:40.919Z,58.10
2023-04-03T08:36:16.718Z,55.10
2023-04-03T08:38:43.359Z,54.50
2023-04-03T08:41:16.394Z,56.70
2023-04-03T08:44:19.637Z,55.20
2023-04-03T08:47:11.755Z,54.90
2023-04-03T08:49:49.799Z,54.80
2023-04-03T08:52:20.167Z,53.90
2023-04-03T08:54:58.271Z,55.20
2023-04-03T08:57:43.503Z,55.60
2023-04-03T09:00:23.312Z,53.90
2023-04-03T09:02:55.213Z,53.10
2023-04-03T09:05:36.976Z,48.60
2023-04-03T09:08:29.374Z,50.60
2023-04-03T09:11:09.856Z,49.40
2023-04-03T09:14:14.767Z,45.80
2023-04-03T09:16:57.201Z,47.50
2023-04-03T09:19:35.775Z,45.50
2023-04-03T09:22:17.917Z,47.60
2023-04-03T09:24:47.861Z,48.20
2023-04-03T09:27:14.520Z,46.80
2023-04-03T09:29:44.339Z,45.00
2023-04-03T09:32:40.276Z,45.00
2023-04-03T09:35:29.855Z,45.80
2023-04-03T09:38:20.208Z,43.30
2023-04-03T09:41:07.258Z,42.60
2023-04-03T09:43:35.736Z,43.50
2023-04-03T09:46:27.384Z,47.10
2023-04-03T09:49:08.124Z,46.30
2023-04-03T09:51:35.515Z,43.00
2023-04-03T09:54:26.373Z,41.60
2023-04-03T09:56:54.704Z,42.30
2023-04-03T09:59:21.347Z,41.50
2023-04-03T10:02:00.733Z,42.40
2023-04-03T10:04:39.299Z,44.10
2023-04-03T10:07:36.772Z,42.50
2023-04-03T10:10:15.636Z,43.10
2023-04-03T10:12:42.452Z,47.20
2023-04-03T10:15:15.357Z,46.50
2023-04-03T10:18:06.421Z,41.90
2023-04-03T10:20:36.264Z,40.90
2023-04-03T10:23:29.886Z,43.80
2023-04-03T10:26:08.815Z,41.70
2023-04-03T10:28:52.901Z,42.40
2023-04-03T10:31:43.996Z,41.00
2023-04-03T10:34:25.911Z,42.30
2023-04-03T10:37:13.261Z,41.20
2023-04-03T10:39:58.184Z,39.20
2023-04-03T10:42:38.470Z,39.60
2023-04-03T10:45:28.548Z,41.30
2023-04-03T10:48:18.781Z,42.40
2023-04-03T10:51:04.408Z,42.20
2023-04-03T10:53:45.127Z,41.40
2023-04-03T10:56:23.707Z,42.80
2023-04-03T10:58:55.535Z,46.30
2023-04-03T11:01:33.939Z,43.60
2023-04-03T11:04:04.139Z,44.40
2023-04-03T11:06:42.103Z,44.60
2023-04-03T11:09:30.437Z,41.80
2023-04-03T11:12:05.014Z,43.20
2023-04-03T11:14:37.072Z,42.70
2023-04-03T11:17:13.043Z,40.50
2023-04-03T11:19:53.653Z,40.70
2023-04-03T11:22:43.353Z,40.00
2023-04-03T11:25:10.044Z,42.40
2023-04-03T11:27:57.105Z,41.10
2023-04-03T11:30:29.224Z,41.80
2023-04-03T11:33:12.156Z,42.30
2023-04-03T11:35:43.480Z,42.30
2023-04-03T11:38:20.844Z,42.40
2023-04-03T11:40:47.969Z,41.40
2023-04-03T11:43:30.569Z,41.70
2023-04-03T11:46:03.988Z,40.50
2023-04-03T11:48:32.423Z,43.00
2023-04-03T11:51:01.133Z,40.20
2023-04-03T11:53:35.460Z,41.30
2023-04-03T11:56:25.218Z,42.70
2023-04-03T11:59:11.725Z,39.80
2023-04-03T12:01:58.907Z,41.40
2023-04-03T12:04:27.596Z,40.10
2023-04-03T12:07:01.530Z,38.70
2023-04-03T12:09:30.166Z,40.80
2023-04-03T12:11:59.605Z,39.80
2023-04-03T12:14:27.059Z,43.00
2023-04-03T12:16:58.242Z,41.20
2023-04-03T12:19:42.069Z,42.50
2023-04-03T12:22:13.262Z,42.50
2023-04-03T12:24:43.221Z,42.30
2023-04-03T12:27:34.001Z,41.50
2023-04-03T12:30:16.137Z,42.00
2023-04-03T12:33:16.805Z,42.80
2023-04-03T12:35:55.331Z,42.00
2023-04-03T12:38:21.930Z,43.70
2023-04-03T12:41:22.253Z,45.20
2023-04-03T12:44:09.764Z,44.10
2023-04-03T12:46:45.655Z,43.20
2023-04-03T12:49:29.826Z,44.30
2023-04-03T12:51:56.704Z,45.30
2023-04-03T12:54:44.641Z,46.20
2023-04-03T12:57:29.467Z,42.90
2023-04-03T12:59:56.122Z,44.70
2023-04-03T13:02:31.971Z,44.00
2023-04-03T13:05:05.610Z,43.60
2023-04-03T13:07:39.635Z,43.80
2023-04-03T13:10:09.595Z,43.60
2023-04-03T13:12:53.864Z,44.10
2023-04-03T13:15:26.602Z,46.60
2023-04-03T13:17:54.690Z,44.10
2023-04-03T13:20:26.439Z,44.10
2023-04-03T13:22:56.288Z,45.60
2023-04-03T13:25:24.779Z,47.00
2023-04-03T13:27:53.816Z,46.00
2023-04-03T13:30:33.584Z,43.20
2023-04-03T13:33:03.820Z,43.80
2023-04-03T13:35:34.799Z,45.50
2023-04-03T13:38:06.036Z,44.40
2023-04-03T13:40:45.159Z,49.50
2023-04-03T13:43:21.318Z,48.50
2023-04-03T13:46:12.102Z,48.20
2023-04-03T13:48:44.116Z,50.40
2023-04-03T13:51:13.756Z,49.90
2023-04-03T13:53:48.015Z,50.70
2023-04-03T13:56:24.922Z,49.10
2023-04-03T13:59:13.252Z,50.00
2023-04-03T14:01:42.910Z,50.00
2023-04-03T14:04:20.131Z,51.60
2023-04-03T14:06:48.283Z,52.50
2023-04-03T14:09:16.255Z,55.10
2023-04-03T14:11:43.650Z,55.20
2023-04-03T14:14:27.763Z,55.60
2023-04-03T14:16:57.572Z,55.20
2023-04-03T14:19:30.557Z,56.90
2023-04-03T14:21:58.716Z,56.20
2023-04-03T14:24:25.677Z,54.90
2023-04-03T14:26:54.809Z,54.10
2023-04-03T14:29:22.975Z,54.20
2023-04-03T14:31:55.515Z,54.60
2023-04-03T14:34:27.356Z,54.70
2023-04-03T14:36:54.620Z,54.20
2023-04-03T14:39:21.204Z,56.30
2023-04-03T14:41:47.925Z,57.10
2023-04-03T14:44:14.614Z,57.70
2023-04-03T14:49:22.457Z,59.70
2023-04-03T14:51:49.334Z,58.60
2023-04-03T14:54:19.833Z,58.00
2023-04-03T14:56:46.865Z,58.00
2023-04-03T14:59:15.351Z,59.80
2023-04-03T15:01:43.121Z,62.10
2023-04-03T15:04:21.746Z,63.90
2023-04-03T15:06:49.715Z,65.50
2023-04-03T15:09:28.213Z,67.70
2023-04-03T15:11:55.958Z,67.20
2023-04-03T15:14:35.790Z,67.10
2023-04-03T15:17:04.939Z,67.60
2023-04-03T15:19:37.719Z,67.80
2023-04-03T15:22:04.393Z,66.30
2023-04-03T15:24:30.990Z,67.30
2023-04-03T15:26:57.593Z,68.20
2023-04-03T15:29:25.065Z,67.20
2023-04-03T15:31:54.580Z,70.30
2023-04-03T15:34:22.469Z,71.20
2023-04-03T15:36:50.220Z,72.60
2023-04-03T15:39:17.366Z,71.90
2023-04-03T15:41:44.527Z,72.40
2023-04-03T15:44:11.072Z,72.00
2023-04-03T15:46:38.185Z,74.20
2023-04-03T15:49:05.316Z,74.80
2023-04-03T15:51:32.388Z,75.10
2023-04-03T15:53:58.941Z,74.80
2023-04-03T15:56:25.502Z,76.60
2023-04-03T15:58:52.075Z,78.00
2023-04-03T16:01:18.739Z,78.40
2023-04-03T16:03:46.468Z,79.00
2023-04-03T16:06:18.504Z,80.60
2023-04-03T16:08:45.443Z,81.20
2023-04-03T16:11:11.988Z,81.40
2023-04-03T16:13:38.771Z,83.10
2023-04-03T16:16:06.193Z,83.00
2023-04-03T16:18:35.133Z,84.30
2023-04-03T16:21:01.906Z,84.20
2023-04-03T16:23:28.599Z,85.70
2023-04-03T16:25:55.154Z,85.80
2023-04-03T16:28:21.753Z,86.50
2023-04-03T16:30:50.009Z,87.80
2023-04-03T16:33:16.674Z,88.30
2023-04-03T16:35:44.492Z,90.10
2023-04-03T16:38:11.642Z,90.60
2023-04-03T16:40:38.464Z,91.10
2023-04-03T16:43:05.110Z,91.70
2023-04-03T16:45:31.900Z,92.70
2023-04-03T16:47:58.584Z,93.20
2023-04-03T16:50:25.405Z,94.10
2023-04-03T16:52:52.173Z,94.60
2023-04-03T16:55:18.952Z,95.10
2023-04-03T16:57:45.543Z,95.60
2023-04-03T17:00:12.633Z,96.50
2023-04-03T17:02:40.832Z,97.10
2023-04-03T17:05:08.047Z,98.00
2023-04-03T17:07:34.707Z,98.80
2023-04-03T17:10:01.381Z,99.90
2023-04-03T17:12:27.955Z,99.90
2023-04-03T17:14:54.632Z,99.90
2023-04-03T17:17:24.796Z,99.90
2023-04-03T17:19:51.609Z,99.90
2023-04-03T17:22:18.227Z,99.90
2023-04-03T17:24:45.739Z,99.90
2023-04-03T17:27:12.311Z,99.90
2023-04-03T17:29:38.886Z,99.90
2023-04-03T17:32:05.575Z,99.90
2023-04-03T17:34:33.553Z,99.90
2023-04-03T17:37:00.338Z,99.90
2023-04-03T17:39:27.011Z,99.90
2023-04-03T17:41:54.988Z,99.90
2023-04-03T17:44:22.565Z,99.90
2023-04-03T17:46:49.583Z,99.90
2023-04-03T17:49:18.602Z,99.90
2023-04-03T17:51:45.334Z,99.90
2023-04-03T17:54:12.297Z,99.90
2023-04-03T17:56:39.037Z,99.90
2023-04-03T17:59:06.660Z,99.90
2023-04-03T18:01:36.170Z,99.90
2023-04-03T18:04:04.780Z,99.90
2023-04-03T18:06:41.219Z,99.90
2023-04-03T18:09:12.255Z,99.90
2023-04-03T18:11:39.029Z,99.90
2023-04-03T18:14:08.176Z,99.90
2023-04-03T18:16:34.864Z,99.90
2023-04-03T18:19:21.255Z,99.90
2023-04-03T18:21:48.429Z,99.90
2023-04-03T18:24:17.792Z,99.90
2023-04-03T18:26:47.282Z,99.90
2023-04-03T18:29:14.378Z,99.90
2023-04-03T18:31:44.056Z,99.90
2023-04-03T18:34:11.507Z,99.90
2023-04-03T18:36:38.097Z,99.90
2023-04-03T18:39:04.672Z,99.90
2023-04-03T18:41:33.594Z,99.90
2023-04-03T18:44:03.382Z,99.90
2023-04-03T18:46:31.298Z,99.90
2023-04-03T18:48:58.046Z,99.90
2023-04-03T18:51:25.560Z,99.90
2023-04-03T18:53:52.254Z,99.90
2023-04-03T18:56:19.099Z,99.90
2023-04-03T18:58:45.710Z,99.90
2023-04-03T19:01:13.633Z,99.90
2023-04-03T19:03:40.891Z,99.90
2023-04-03T19:06:07.708Z,99.90
2023-04-03T19:08:34.411Z,99.90
2023-04-03T19:11:00.966Z,99.90
2023-04-03T19:13:27.945Z,99.90
2023-04-03T19:15:58.676Z,99.90
2023-04-03T19:18:26.931Z,99.90
2023-04-03T19:20:56.365Z,99.90
2023-04-03T19:23:24.257Z,99.90
2023-04-03T19:26:07.960Z,99.90
2023-04-03T19:28:34.973Z,99.90
2023-04-03T19:31:02.121Z,99.90
2023-04-03T19:33:28.899Z,99.90
2023-04-03T19:35:55.571Z,99.90
2023-04-03T19:38:22.215Z,99.90
2023-04-03T19:40:48.938Z,99.90
2023-04-03T19:43:16.616Z,99.90
2023-04-03T19:45:46.110Z,99.90
2023-04-03T19:48:13.381Z,99.90
2023-04-03T19:50:40.399Z,99.90
2023-04-03T19:53:08.854Z,99.90
2023-04-03T19:55:36.165Z,99.90
2023-04-03T19:58:04.343Z,99.90
2023-04-03T20:00:32.010Z,99.90
2023-04-03T20:02:58.739Z,99.90
2023-04-03T20:05:25.529Z,99.90
2023-04-03T20:07:52.527Z,99.90
2023-04-03T20:10:19.405Z,99.90
2023-04-03T20:12:45.952Z,99.90
2023-04-03T20:15:13.265Z,99.90
2023-04-03T20:17:39.977Z,99.90
2023-04-03T20:20:08.238Z,99.90
2023-04-03T20:22:37.010Z,99.90
2023-04-03T20:25:09.560Z,99.90
2023-04-03T20:27:36.189Z,99.90
2023-04-03T20:30:05.006Z,99.90
2023-04-03T20:32:32.153Z,99.90
2023-04-03T20:35:04.196Z,99.90
2023-04-03T20:37:32.285Z,99.90
2023-04-03T20:39:58.849Z,99.90
2023-04-03T20:42:26.029Z,99.90
2023-04-03T20:44:52.653Z,99.90
2023-04-03T20:47:19.486Z,99.90
2023-04-03T20:49:46.198Z,99.90
2023-04-03T20:52:12.853Z,99.90
2023-04-03T20:54:39.978Z,99.90
2023-04-03T20:57:07.046Z,99.90
2023-04-03T20:59:34.132Z,99.90
2023-04-03T21:02:01.329Z,99.90
2023-04-03T21:04:39.400Z,99.90
2023-04-03T21:07:44.098Z,99.90
2023-04-03T21:10:48.428Z,99.90
2023-04-03T21:13:53.797Z,99.90
2023-04-03T21:16:21.519Z,99.90
2023-04-03T21:19:06.753Z,99.90
2023-04-03T21:21:36.429Z,99.90
2023-04-03T21:24:09.888Z,99.90
2023-04-03T21:26:39.097Z,99.90
2023-04-03T21:29:09.481Z,99.90
2023-04-03T21:31:58.155Z,99.90
2023-04-03T21:34:27.648Z,99.90
2023-04-03T21:37:02.051Z,99.90
2023-04-03T21:39:28.917Z,99.90
2023-04-03T21:41:55.492Z,99.90
2023-04-03T21:44:22.861Z,99.90
2023-04-03T21:46:54.146Z,99.90
2023-04-03T21:49:21.594Z,99.90
2023-04-03T21:51:48.544Z,99.90
2023-04-03T21:54:15.763Z,99.90
2023-04-03T21:56:42.545Z,99.90
2023-04-03T21:59:09.597Z,99.90
2023-04-03T22:01:36.730Z,99.90
2023-04-03T22:04:03.530Z,99.90
2023-04-03T22:06:30.411Z,99.90
2023-04-03T22:08:57.047Z,99.90
2023-04-03T22:11:26.939Z,99.90
2023-04-03T22:13:55.392Z,99.90
2023-04-03T22:16:23.196Z,99.90
2023-04-03T22:18:51.959Z,99.90
2023-04-03T22:21:18.760Z,99.90
2023-04-03T22:23:45.348Z,99.90
2023-04-03T22:26:12.775Z,99.90
2023-04-03T22:28:41.977Z,99.90
2023-04-03T22:31:10.719Z,99.90
2023-04-03T22:33:38.023Z,99.90
2023-04-03T22:36:06.185Z,99.90
2023-04-03T22:38:33.285Z,99.90
2023-04-03T22:41:04.313Z,99.90
2023-04-03T22:43:33.632Z,99.90
2023-04-03T22:46:01.246Z,99.90
2023-04-03T22:48:27.828Z,99.90
2023-04-03T22:50:55.491Z,99.90
2023-04-03T22:53:22.352Z,99.90
2023-04-03T22:55:59.797Z,99.90
2023-04-03T22:58:27.469Z,99.90
2023-04-03T23:01:09.513Z,99.90
2023-04-03T23:03:37.513Z,99.90
2023-04-03T23:06:06.038Z,99.90
2023-04-03T23:08:34.947Z,99.90
2023-04-03T23:11:02.104Z,99.90
2023-04-03T23:13:28.868Z,99.90
2023-04-03T23:16:00.500Z,99.90
2023-04-03T23:18:31.369Z,99.90
2023-04-03T23:21:04.787Z,99.90
2023-04-03T23:23:31.928Z,99.90
2023-04-03T23:26:00.499Z,99.90
2023-04-03T23:28:28.278Z,99.90
2023-04-03T23:30:59.352Z,99.90
2023-04-03T23:33:26.157Z,99.90
2023-04-03T23:35:52.852Z,99.90
2023-04-03T23:38:19.429Z,99.90
2023-04-03T23:40:46.939Z,99.90
2023-04-03T23:43:13.509Z,99.90
2023-04-03T23:45:40.430Z,99.90
2023-04-03T23:48:07.464Z,99.90
2023-04-03T23:50:34.094Z,99.90
2023-04-03T23:53:00.965Z,99.90
2023-04-03T23:55:27.623Z,99.90
2023-04-03T23:57:54.266Z,99.90
